Time;durP1;ratioP1;P1;durP2;ratioP2;P2;SDS_P1;SDS_P2;PMS_P1;PMS_P2;Temp;Humidity;BMP_temperature;BMP_pressure;BME280_temperature;BME280_humidity;BME280_pressure;Samples;Min_cycle;Max_cycle;Signal;HPM_P1;HPM_P2
2023/01/10 00:01:31;;;;;;;19.73;11.65;;;;;;;4.27;100.00;62440.41;5016793;28;20226;-78
2023/01/10 00:03:59;;;;;;;21.52;12.05;;;;;;;4.21;100.00;62431.72;5025908;28;20234;-78
2023/01/10 00:06:26;;;;;;;28.67;13.38;;;;;;;4.10;100.00;62420.41;5025222;28;20232;-79
2023/01/10 00:08:56;;;;;;;21.63;11.98;;;;;;;4.03;100.00;62415.72;5026022;28;20308;-80
2023/01/10 00:14:07;;;;;;;23.55;13.23;;;;;;;3.90;100.00;62400.34;5018282;28;20233;-79
2023/01/10 00:16:35;;;;;;;25.77;14.05;;;;;;;3.94;100.00;62409.50;5025972;28;20459;-78
2023/01/10 00:19:02;;;;;;;25.00;12.65;;;;;;;3.84;100.00;62394.19;5024028;28;20363;-78
2023/01/10 00:21:30;;;;;;;28.73;13.50;;;;;;;3.94;100.00;62401.41;5024028;28;20223;-78
2023/01/10 00:24:12;;;;;;;24.25;13.93;;;;;;;3.93;100.00;62400.41;5024939;28;20233;-78
2023/01/10 00:26:40;;;;;;;29.15;14.40;;;;;;;3.93;100.00;62402.91;5024961;28;20405;-80
2023/01/10 00:29:08;;;;;;;26.92;13.95;;;;;;;3.65;100.00;62369.59;5026426;28;20512;-79
2023/01/10 00:31:34;;;;;;;24.73;13.68;;;;;;;3.66;100.00;62373.13;5028697;28;20553;-79
2023/01/10 00:34:01;;;;;;;24.20;13.48;;;;;;;3.60;100.00;62369.50;5027680;28;20284;-77
2023/01/10 00:36:28;;;;;;;30.17;14.13;;;;;;;3.35;100.00;62349.34;5029116;28;20227;-78
2023/01/10 00:38:55;;;;;;;22.52;11.75;;;;;;;3.46;100.00;62355.09;5028273;28;20203;-78
2023/01/10 00:44:08;;;;;;;24.15;12.95;;;;;;;3.52;100.00;62358.75;5011121;28;20222;-79
2023/01/10 00:46:35;;;;;;;24.90;13.13;;;;;;;3.63;100.00;62375.09;5024194;28;20277;-78
2023/01/10 00:49:10;;;;;;;25.50;13.85;;;;;;;3.69;100.00;62375.72;5034947;28;20203;-79
2023/01/10 00:51:36;;;;;;;23.50;13.77;;;;;;;3.73;100.00;62380.34;5026825;28;20414;-79
2023/01/10 00:54:04;;;;;;;27.85;14.15;;;;;;;3.71;100.00;62378.28;5028087;28;20298;-77
2023/01/10 00:56:32;;;;;;;25.55;14.55;;;;;;;3.54;100.00;62363.84;5027634;28;20222;-78
2023/01/10 00:58:59;;;;;;;25.33;14.07;;;;;;;3.33;100.00;62344.25;5026247;28;20317;-77
2023/01/10 01:01:26;;;;;;;23.92;12.93;;;;;;;3.37;100.00;62343.31;5029515;28;20222;-78
2023/01/10 01:03:52;;;;;;;18.25;10.82;;;;;;;3.47;100.00;62356.13;5027948;28;20198;-78
2023/01/10 01:06:19;;;;;;;24.17;13.30;;;;;;;3.42;100.00;62354.00;5027219;28;20230;-77
2023/01/10 01:08:46;;;;;;;25.27;12.35;;;;;;;3.50;100.00;62362.22;5026352;28;20213;-77
2023/01/10 01:11:14;;;;;;;20.63;11.50;;;;;;;3.62;100.00;62371.56;5028359;28;20214;-78
2023/01/10 01:13:42;;;;;;;17.92;9.15;;;;;;;3.57;100.00;62368.41;5027268;28;20230;-80
2023/01/10 01:16:09;;;;;;;15.15;9.48;;;;;;;3.76;100.00;62387.97;5027048;28;20281;-78
2023/01/10 01:18:36;;;;;;;15.63;9.30;;;;;;;3.83;100.00;62392.63;5026035;28;20226;-79
2023/01/10 01:21:04;;;;;;;12.60;7.95;;;;;;;3.79;100.00;62389.03;5040243;28;20231;-78
2023/01/10 01:23:34;;;;;;;17.85;10.75;;;;;;;3.60;100.00;62369.50;5027172;28;20211;-77
2023/01/10 01:26:01;;;;;;;22.23;11.30;;;;;;;3.37;100.00;62346.34;5029458;28;20417;-78
2023/01/10 01:28:28;;;;;;;20.83;11.90;;;;;;;3.37;100.00;62343.84;5024712;28;20253;-79
2023/01/10 01:30:56;;;;;;;16.00;9.93;;;;;;;3.53;100.00;62364.81;5027099;28;20229;-78
2023/01/10 01:33:23;;;;;;;17.80;9.10;;;;;;;3.47;100.00;62359.16;5027041;28;20226;-77
2023/01/10 01:35:50;;;;;;;15.68;9.85;;;;;;;3.34;100.00;62342.75;5027747;28;20558;-78
2023/01/10 01:38:18;;;;;;;15.50;9.65;;;;;;;3.34;100.00;62340.25;5026332;28;20207;-78
2023/01/10 01:40:45;;;;;;;16.55;9.85;;;;;;;3.37;100.00;62348.88;5027555;28;20543;-78
2023/01/10 01:43:23;;;;;;;16.15;9.40;;;;;;;3.36;100.00;62347.34;5027546;28;20226;-78
2023/01/10 01:45:51;;;;;;;15.23;10.27;;;;;;;3.12;100.00;62322.66;5026940;28;20218;-77
2023/01/10 01:48:32;;;;;;;17.70;9.73;;;;;;;2.98;100.00;62306.28;5026162;28;20230;-78
2023/01/10 01:51:06;;;;;;;16.80;10.10;;;;;;;3.25;100.00;62336.03;5027296;28;20229;-79
2023/01/10 01:53:38;;;;;;;17.48;10.02;;;;;;;3.16;100.00;62327.28;5028627;28;20237;-79
2023/01/10 01:56:10;;;;;;;17.15;9.52;;;;;;;3.17;100.00;62325.81;5025942;28;20378;-78
2023/01/10 01:58:43;;;;;;;13.73;7.25;;;;;;;3.26;100.00;62337.06;5027236;28;20199;-78
2023/01/10 02:01:11;;;;;;;16.15;8.55;;;;;;;3.25;100.00;62339.06;5025840;28;20218;-78
2023/01/10 02:03:41;;;;;;;11.95;7.90;;;;;;;3.42;100.00;62351.50;5027718;28;20247;-78
2023/01/10 02:06:09;;;;;;;12.20;8.60;;;;;;;3.39;100.00;62347.91;5017568;28;20227;-78
2023/01/10 02:08:36;;;;;;;11.82;8.25;;;;;;;3.47;100.00;62356.63;5013610;28;20205;-77
2023/01/10 02:11:08;;;;;;;14.23;9.13;;;;;;;3.44;100.00;62355.56;5027090;28;20244;-78
2023/01/10 02:13:40;;;;;;;14.50;8.32;;;;;;;3.50;100.00;62361.72;5025827;28;20238;-78
2023/01/10 02:16:07;;;;;;;15.82;7.78;;;;;;;3.50;100.00;62357.19;5026984;28;20269;-79
2023/01/10 02:18:35;;;;;;;12.05;7.78;;;;;;;3.31;100.00;62345.22;5024673;28;20199;-77
2023/01/10 02:21:33;;;;;;;15.23;8.35;;;;;;;3.27;100.00;62335.56;5026805;28;20233;-79
2023/01/10 02:24:36;;;;;;;11.93;7.75;;;;;;;3.23;100.00;62333.97;5014814;28;20435;-78
2023/01/10 02:27:13;;;;;;;9.63;6.20;;;;;;;3.34;100.00;62345.78;5017218;28;20249;-79
2023/01/10 02:30:31;;;;;;;9.60;6.40;;;;;;;3.62;100.00;62374.06;5027372;28;20430;-78
2023/01/10 02:33:09;;;;;;;12.77;7.95;;;;;;;3.62;100.00;62371.56;4965542;29;20251;-78
2023/01/10 02:35:59;;;;;;;21.33;11.75;;;;;;;3.67;100.00;62379.22;4966237;28;20196;-79
2023/01/10 02:38:36;;;;;;;15.82;10.10;;;;;;;3.55;100.00;62364.34;5016825;28;20214;-77
2023/01/10 02:41:14;;;;;;;15.13;9.68;;;;;;;3.48;100.00;62357.16;5025367;28;20457;-79
2023/01/10 02:43:46;;;;;;;14.98;8.77;;;;;;;3.45;100.00;62357.09;5025634;28;20523;-77
2023/01/10 02:46:17;;;;;;;15.48;9.85;;;;;;;3.48;100.00;62359.69;5025839;28;20242;-79
2023/01/10 02:48:46;;;;;;;13.50;9.00;;;;;;;3.50;100.00;62361.72;5025919;28;20290;-78
2023/01/10 02:51:18;;;;;;;13.65;9.10;;;;;;;3.60;100.00;62368.97;5025850;28;20235;-79
2023/01/10 02:53:50;;;;;;;15.25;9.80;;;;;;;3.47;100.00;62354.13;5026385;28;20574;-79
2023/01/10 02:56:44;;;;;;;14.55;8.85;;;;;;;3.53;100.00;62362.28;5026059;28;20238;-78
2023/01/10 02:59:46;;;;;;;17.00;10.35;;;;;;;3.51;100.00;62363.28;5026032;28;20203;-78
2023/01/10 03:02:26;;;;;;;22.15;13.02;;;;;;;3.36;100.00;62349.84;5014701;28;20233;-77
2023/01/10 03:05:08;;;;;;;23.58;12.05;;;;;;;3.33;100.00;62341.75;5026869;28;20207;-78
2023/01/10 03:07:41;;;;;;;21.98;11.93;;;;;;;3.46;100.00;62358.13;5027267;28;20222;-79
2023/01/10 03:10:14;;;;;;;20.23;11.23;;;;;;;3.55;100.00;62361.84;5025688;28;20574;-78
2023/01/10 03:12:47;;;;;;;20.50;11.13;;;;;;;3.41;100.00;62352.47;5025742;28;20407;-78
2023/01/10 03:15:17;;;;;;;21.73;12.18;;;;;;;3.45;100.00;62351.56;5025847;28;20322;-79
2023/01/10 03:17:47;;;;;;;24.42;12.40;;;;;;;3.48;100.00;62355.16;5025113;28;20245;-79
2023/01/10 03:20:17;;;;;;;19.00;11.15;;;;;;;3.33;100.00;62342.25;5022034;28;20402;-78
2023/01/10 03:22:46;;;;;;;20.48;11.57;;;;;;;3.39;100.00;62350.41;5025544;28;20246;-78
2023/01/10 03:25:17;;;;;;;14.43;8.90;;;;;;;3.30;100.00;62341.16;5025296;28;20201;-78
2023/01/10 03:27:52;;;;;;;14.90;11.23;;;;;;;3.27;100.00;62336.09;5021062;28;20233;-78
2023/01/10 03:30:26;;;;;;;14.77;9.20;;;;;;;3.25;100.00;62331.00;5025100;28;20206;-77
2023/01/10 03:32:55;;;;;;;22.92;13.75;;;;;;;3.23;100.00;62329.44;5025117;28;20243;-78
2023/01/10 03:35:32;;;;;;;19.40;12.07;;;;;;;3.28;100.00;62334.06;5025526;28;20266;-78
2023/01/10 03:38:08;;;;;;;20.73;11.77;;;;;;;3.35;100.00;62346.81;5026228;28;20209;-80
2023/01/10 03:40:42;;;;;;;26.23;13.05;;;;;;;3.39;100.00;62348.41;5026847;28;20245;-79
2023/01/10 03:46:00;;;;;;;24.13;13.93;;;;;;;3.24;100.00;62329.97;5026826;28;20214;-78
2023/01/10 03:48:32;;;;;;;18.50;12.48;;;;;;;3.38;100.00;62346.88;5025307;28;20202;-80
2023/01/10 03:51:02;;;;;;;22.48;13.07;;;;;;;3.44;100.00;62353.56;5025689;28;20395;-78
2023/01/10 03:53:29;;;;;;;21.58;13.45;;;;;;;3.31;100.00;62342.69;5025111;28;20226;-79
2023/01/10 03:55:56;;;;;;;22.13;13.85;;;;;;;3.29;100.00;62337.63;5016649;28;20262;-79
2023/01/10 03:58:23;;;;;;;23.80;12.70;;;;;;;3.23;100.00;62328.94;5019939;28;20213;-77
2023/01/10 04:00:50;;;;;;;19.55;12.38;;;;;;;3.36;100.00;62350.38;5025725;28;20232;-78
2023/01/10 04:03:17;;;;;;;21.73;12.20;;;;;;;3.37;100.00;62348.88;5024918;28;20388;-79
2023/01/10 04:05:44;;;;;;;24.40;14.43;;;;;;;3.40;100.00;62348.91;5027281;28;20203;-78
2023/01/10 04:08:12;;;;;;;49.95;25.70;;;;;;;3.45;100.00;62351.56;5029351;28;20288;-77
2023/01/10 04:10:39;;;;;;;16.67;10.93;;;;;;;3.39;100.00;62345.38;5028659;28;20399;-77
2023/01/10 04:13:06;;;;;;;15.05;8.95;;;;;;;3.41;100.00;62352.47;5030036;28;20257;-77
2023/01/10 04:15:34;;;;;;;15.07;9.10;;;;;;;3.40;100.00;62351.97;5031640;28;20226;-78
2023/01/10 04:18:01;;;;;;;13.13;9.15;;;;;;;3.38;100.00;62354.44;5030229;28;20263;-78
2023/01/10 04:20:29;;;;;;;13.63;8.52;;;;;;;3.11;100.00;62321.63;5028117;28;20260;-77
2023/01/10 04:22:55;;;;;;;13.65;9.52;;;;;;;3.07;100.00;62313.00;5028176;28;20232;-78
2023/01/10 04:25:24;;;;;;;15.65;9.55;;;;;;;3.10;100.00;62318.63;5027395;28;20202;-77
2023/01/10 04:27:52;;;;;;;15.07;9.20;;;;;;;3.22;100.00;62330.94;5039584;28;20226;-77
2023/01/10 04:30:20;;;;;;;12.80;8.57;;;;;;;3.30;100.00;62338.66;5048826;28;20201;-78
2023/01/10 04:32:47;;;;;;;15.75;9.02;;;;;;;3.32;100.00;62343.75;5029240;28;20239;-78
2023/01/10 04:35:14;;;;;;;18.45;9.70;;;;;;;3.40;100.00;62351.44;5029282;28;20281;-79
2023/01/10 04:37:41;;;;;;;14.85;10.18;;;;;;;3.60;100.00;62368.97;5028925;28;20602;-78
2023/01/10 04:40:10;;;;;;;16.58;9.43;;;;;;;3.54;100.00;62363.31;5039534;28;20205;-78
2023/01/10 04:42:38;;;;;;;16.50;10.48;;;;;;;3.65;100.00;62371.59;5027654;28;20249;-78
2023/01/10 04:45:06;;;;;;;18.52;10.70;;;;;;;3.80;100.00;62387.53;5028247;28;20207;-78
2023/01/10 04:47:33;;;;;;;17.83;9.55;;;;;;;3.65;100.00;62377.16;5028066;28;20320;-79
2023/01/10 04:49:59;;;;;;;14.95;9.30;;;;;;;3.83;100.00;62397.69;5026181;28;20222;-78
2023/01/10 04:52:30;;;;;;;15.15;9.50;;;;;;;3.78;100.00;62388.00;5030756;28;20218;-78
2023/01/10 04:54:57;;;;;;;16.08;10.15;;;;;;;3.88;100.00;62395.78;5030518;28;20261;-79
2023/01/10 04:57:24;;;;;;;15.88;10.23;;;;;;;3.80;100.00;62392.56;5032293;28;20261;-78
2023/01/10 05:00:00;;;;;;;18.30;10.05;;;;;;;3.73;100.00;62380.34;5031221;28;20211;-78
2023/01/10 05:02:26;;;;;;;27.73;11.77;;;;;;;3.83;100.00;62398.19;5026792;28;20441;-79
2023/01/10 05:04:53;;;;;;;20.08;11.02;;;;;;;3.83;100.00;62395.66;5013846;28;20210;-78
2023/01/10 05:07:20;;;;;;;17.85;10.70;;;;;;;3.81;100.00;62395.63;5030414;28;20330;-78
2023/01/10 05:09:47;;;;;;;17.23;10.60;;;;;;;3.82;100.00;62396.63;5028173;28;20206;-78
2023/01/10 05:12:14;;;;;;;20.92;11.15;;;;;;;3.86;100.00;62395.72;5029529;28;20227;-78
2023/01/10 05:14:41;;;;;;;17.90;10.35;;;;;;;3.94;100.00;62406.47;5030921;28;20231;-77
2023/01/10 05:17:09;;;;;;;16.80;10.40;;;;;;;3.90;100.00;62402.84;5043056;28;20227;-78
2023/01/10 05:19:36;;;;;;;17.35;9.27;;;;;;;3.92;100.00;62406.94;5029248;28;20504;-78
2023/01/10 05:22:03;;;;;;;16.77;10.65;;;;;;;3.71;100.00;62380.31;5032424;28;20234;-79
2023/01/10 05:24:30;;;;;;;16.65;9.82;;;;;;;3.58;100.00;62366.91;5029256;28;20199;-78
2023/01/10 05:26:57;;;;;;;16.23;10.50;;;;;;;3.64;100.00;62375.63;5027630;28;20230;-78
2023/01/10 05:29:24;;;;;;;14.90;9.65;;;;;;;3.53;100.00;62362.81;5028424;28;20416;-79
2023/01/10 05:31:51;;;;;;;14.63;8.52;;;;;;;3.26;100.00;62339.56;5028974;28;20257;-77
2023/01/10 05:34:19;;;;;;;15.73;8.80;;;;;;;3.36;100.00;62345.34;5029934;28;20299;-80
2023/01/10 05:36:47;;;;;;;15.05;9.20;;;;;;;3.44;100.00;62353.56;5028201;28;20294;-78
2023/01/10 05:39:14;;;;;;;13.80;9.73;;;;;;;3.42;100.00;62350.97;5028412;28;20214;-79
2023/01/10 05:41:41;;;;;;;13.43;9.20;;;;;;;3.36;100.00;62350.38;5028646;28;20233;-78
2023/01/10 05:44:08;;;;;;;11.57;8.45;;;;;;;3.50;100.00;62364.75;5027078;28;20203;-77
2023/01/10 05:46:35;;;;;;;13.48;9.43;;;;;;;3.66;100.00;62377.69;5028335;28;20229;-77
2023/01/10 05:49:01;;;;;;;13.80;9.10;;;;;;;3.56;100.00;62370.41;5022903;28;20211;-77
2023/01/10 05:51:30;;;;;;;14.63;9.73;;;;;;;3.52;100.00;62361.25;5014315;28;20228;-77
2023/01/10 05:53:58;;;;;;;15.25;8.85;;;;;;;3.69;100.00;62381.28;5026040;28;20245;-76
2023/01/10 05:56:25;;;;;;;16.58;9.65;;;;;;;3.82;100.00;62396.63;5027218;28;20227;-78
2023/01/10 05:58:52;;;;;;;10.75;7.85;;;;;;;3.72;100.00;62378.81;5026889;28;20245;-78
2023/01/10 06:01:19;;;;;;;10.45;7.72;;;;;;;3.83;100.00;62393.13;5026813;28;20535;-78
2023/01/10 06:03:47;;;;;;;12.68;8.20;;;;;;;3.94;100.00;62404.47;5026490;28;20401;-79
2023/01/10 06:06:14;;;;;;;11.52;8.32;;;;;;;3.98;100.00;62411.09;5028141;28;20278;-79
2023/01/10 06:08:42;;;;;;;12.15;8.88;;;;;;;4.12;100.00;62423.00;5027711;28;20256;-78
2023/01/10 06:11:12;;;;;;;13.15;8.35;;;;;;;4.08;100.00;62418.34;5028290;28;20214;-78
2023/01/10 06:13:39;;;;;;;16.67;9.75;;;;;;;4.19;100.00;62427.66;5027378;28;20425;-77
2023/01/10 06:16:07;;;;;;;18.00;10.15;;;;;;;4.13;100.00;62420.97;5038898;28;20237;-76
2023/01/10 06:18:34;;;;;;;20.40;11.40;;;;;;;4.22;100.00;62430.75;5042166;28;20217;-76
2023/01/10 06:21:01;;;;;;;16.45;10.77;;;;;;;4.34;100.00;62445.09;5026386;28;20230;-77
2023/01/10 06:23:29;;;;;;;15.55;10.75;;;;;;;4.41;100.00;62457.88;5026699;28;20249;-77
2023/01/10 06:25:57;;;;;;;16.27;10.07;;;;;;;4.36;100.00;62450.22;5025750;28;20245;-77
2023/01/10 06:28:24;;;;;;;16.50;10.50;;;;;;;4.15;100.00;62425.56;5024390;28;20396;-77
2023/01/10 06:30:51;;;;;;;14.02;10.20;;;;;;;4.10;100.00;62420.94;5026038;28;20261;-76
2023/01/10 06:33:18;;;;;;;17.58;10.85;;;;;;;4.23;100.00;62436.81;5024934;28;20205;-76
2023/01/10 06:35:45;;;;;;;16.55;10.73;;;;;;;4.35;100.00;62446.66;5026004;28;20535;-75
2023/01/10 06:38:12;;;;;;;14.32;10.10;;;;;;;4.24;100.00;62437.34;5026364;28;20534;-75
2023/01/10 06:40:39;;;;;;;16.23;10.55;;;;;;;4.04;100.00;62422.31;5025201;28;20257;-76
2023/01/10 06:43:07;;;;;;;15.32;9.70;;;;;;;4.18;100.00;62431.66;5023814;28;20202;-76
2023/01/10 06:45:34;;;;;;;16.38;10.15;;;;;;;4.28;100.00;62441.47;5024541;28;20195;-78
2023/01/10 06:48:01;;;;;;;15.07;10.02;;;;;;;4.29;100.00;62445.53;5024478;28;20195;-76
2023/01/10 06:50:28;;;;;;;14.52;9.77;;;;;;;4.19;100.00;62429.66;5023009;28;20210;-77
2023/01/10 06:52:56;;;;;;;16.17;11.55;;;;;;;4.12;100.00;62425.00;5024839;28;20214;-76
2023/01/10 06:55:23;;;;;;;15.23;10.43;;;;;;;4.20;100.00;62428.16;5028009;28;20229;-77
2023/01/10 06:57:56;;;;;;;18.08;11.13;;;;;;;4.39;100.00;62455.81;5036018;28;20226;-75
2023/01/10 07:00:26;;;;;;;16.75;9.93;;;;;;;4.33;100.00;62444.09;5042872;28;20191;-77
2023/01/10 07:02:55;;;;;;;17.63;10.82;;;;;;;4.38;100.00;62452.25;5029284;28;20202;-75
2023/01/10 07:05:22;;;;;;;15.38;10.43;;;;;;;4.34;100.00;62447.63;5042838;28;20202;-76
2023/01/10 07:07:49;;;;;;;16.88;11.90;;;;;;;4.38;100.00;62449.72;5026128;28;20273;-77
2023/01/10 07:10:17;;;;;;;19.15;11.65;;;;;;;4.51;100.00;62460.59;5025816;28;20210;-77
2023/01/10 07:12:44;;;;;;;17.63;11.25;;;;;;;4.60;100.00;62476.91;5024218;28;20535;-77
2023/01/10 07:15:11;;;;;;;21.00;11.65;;;;;;;4.66;100.00;62476.03;5030084;28;20230;-76
2023/01/10 07:17:40;;;;;;;15.93;9.85;;;;;;;4.67;100.00;62484.13;5033299;28;20519;-76
2023/01/10 07:20:08;;;;;;;15.85;9.68;;;;;;;4.47;100.00;62458.47;5039083;28;20253;-76
2023/01/10 07:22:35;;;;;;;10.43;8.38;;;;;;;4.56;100.00;62468.25;5020876;28;20257;-78
2023/01/10 07:25:02;;;;;;;12.02;7.68;;;;;;;4.54;100.00;62471.25;5028686;28;20203;-79
2023/01/10 07:27:31;;;;;;;10.20;7.20;;;;;;;4.73;100.00;62487.75;5025384;28;20222;-77
2023/01/10 07:29:58;;;;;;;372.63;76.05;;;;;;;4.76;100.00;62490.34;5035692;28;20222;-78
2023/01/10 07:32:25;;;;;;;11.32;7.43;;;;;;;4.81;100.00;62495.50;5034275;28;20222;-77
2023/01/10 07:34:54;;;;;;;8.52;7.43;;;;;;;4.98;100.00;62513.50;5026319;28;20293;-78
2023/01/10 07:37:21;;;;;;;86.13;14.45;;;;;;;5.04;100.00;62519.19;5025626;28;20537;-79
2023/01/10 07:39:48;;;;;;;11.38;7.80;;;;;;;5.14;100.00;62532.00;5033171;28;20207;-79
2023/01/10 07:42:16;;;;;;;8.93;7.38;;;;;;;5.20;100.00;62533.13;5035137;28;20226;-80
2023/01/10 07:44:43;;;;;;;11.80;7.80;;;;;;;5.13;100.00;62528.94;5034373;28;20555;-81
2023/01/10 07:47:14;;;;;;;9.32;6.60;;;;;;;5.19;100.00;62530.09;5035806;28;20242;-82
2023/01/10 07:49:41;;;;;;;8.38;6.65;;;;;;;5.25;100.00;62538.78;5040979;28;20202;-84
2023/01/10 07:52:10;;;;;;;18.65;6.45;;;;;;;5.33;100.00;62551.56;5037224;28;20225;-83
2023/01/10 07:54:38;;;;;;;10.95;5.93;;;;;;;5.45;100.00;62561.91;5036940;28;20237;-82
2023/01/10 07:57:05;;;;;;;7.43;5.40;;;;;;;5.53;100.00;62572.69;5036184;28;20314;-82
2023/01/10 07:59:31;;;;;;;9.95;7.57;;;;;;;5.57;100.00;62576.78;5037682;28;20245;-83
2023/01/10 08:01:59;;;;;;;20.63;12.48;;;;;;;5.34;100.00;62550.06;5038795;28;20234;-83
2023/01/10 08:04:26;;;;;;;29.17;16.23;;;;;;;5.36;100.00;62547.59;5038001;28;20206;-79
2023/01/10 08:06:54;;;;;;;78.55;21.27;;;;;;;5.29;100.00;62542.91;5037765;28;20554;-81
2023/01/10 08:09:23;;;;;;;33.42;27.27;;;;;;;5.25;100.00;62538.78;5036090;28;20278;-81
2023/01/10 08:11:50;;;;;;;26.20;17.85;;;;;;;5.26;100.00;62542.34;5036158;28;20332;-82
2023/01/10 08:14:17;;;;;;;1999.90;999.90;;;;;;;5.13;100.00;62528.44;5033858;28;20661;-81
2023/01/10 08:16:45;;;;;;;1999.90;999.90;;;;;;;5.11;100.00;62526.38;5052113;28;20249;-82
2023/01/10 08:19:15;;;;;;;20.65;14.00;;;;;;;5.21;100.00;62534.66;5034103;28;20205;-82
2023/01/10 08:21:43;;;;;;;19.98;12.70;;;;;;;4.85;100.00;62500.13;5035823;28;20227;-82
2023/01/10 08:24:10;;;;;;;22.20;11.98;;;;;;;5.04;100.00;62516.66;5036292;28;20218;-83
2023/01/10 08:26:39;;;;;;;20.13;12.40;;;;;;;5.13;100.00;62534.00;5036450;28;20227;-83
2023/01/10 08:29:06;;;;;;;18.92;11.75;;;;;;;5.16;100.00;62531.53;5037146;28;20496;-81
2023/01/10 08:31:33;;;;;;;22.25;12.73;;;;;;;5.04;100.00;62519.19;5037213;28;20229;-82
2023/01/10 08:33:59;;;;;;;20.10;12.77;;;;;;;5.11;100.00;62524.38;5037931;28;20203;-83
2023/01/10 08:36:27;;;;;;;21.35;13.32;;;;;;;4.79;100.00;62491.44;5036745;28;20753;-83
2023/01/10 08:38:55;;;;;;;21.63;12.77;;;;;;;5.07;100.00;62519.75;5020091;28;20211;-82
2023/01/10 08:41:22;;;;;;;19.67;11.57;;;;;;;5.17;100.00;62530.56;5017229;28;20219;-82
2023/01/10 08:43:51;;;;;;;21.65;11.23;;;;;;;5.02;100.00;62512.06;5016148;28;20211;-83
2023/01/10 08:46:19;;;;;;;18.77;11.95;;;;;;;5.05;100.00;62518.19;5036629;28;20246;-81
2023/01/10 08:48:49;;;;;;;15.77;10.65;;;;;;;5.00;100.00;62512.53;5036214;28;20211;-82
2023/01/10 08:51:17;;;;;;;22.90;13.02;;;;;;;5.04;100.00;62521.69;5034404;28;20269;-83
2023/01/10 08:53:44;;;;;;;19.40;12.65;;;;;;;4.79;100.00;62488.38;5034370;28;20194;-82
2023/01/10 08:56:12;;;;;;;18.48;11.88;;;;;;;4.83;100.00;62495.03;5035894;28;20242;-82
2023/01/10 08:58:39;;;;;;;20.75;13.27;;;;;;;4.74;100.00;62486.28;5032791;28;20249;-82
2023/01/10 09:01:10;;;;;;;22.98;14.85;;;;;;;4.80;100.00;62494.97;5033852;28;20223;-83
2023/01/10 09:03:38;;;;;;;17.52;11.90;;;;;;;4.61;100.00;62473.41;5032873;28;20199;-83
2023/01/10 09:06:07;;;;;;;19.83;13.05;;;;;;;4.89;100.00;62501.19;5034405;28;20219;-81
2023/01/10 09:08:34;;;;;;;19.08;11.65;;;;;;;4.74;100.00;62486.28;5034695;28;20206;-84
2023/01/10 09:11:02;;;;;;;14.98;12.00;;;;;;;4.80;100.00;62491.94;5035598;28;20282;-83
2023/01/10 09:13:29;;;;;;;18.05;12.07;;;;;;;4.88;100.00;62503.22;5034162;28;20203;-83
2023/01/10 09:15:57;;;;;;;15.85;11.45;;;;;;;4.62;100.00;62479.47;5032235;28;20244;-81
2023/01/10 09:18:27;;;;;;;15.95;11.32;;;;;;;4.49;100.00;62463.06;5032603;28;20234;-82
2023/01/10 09:20:54;;;;;;;19.60;12.15;;;;;;;4.66;100.00;62476.03;5033223;28;20296;-81
2023/01/10 09:23:23;;;;;;;21.55;13.05;;;;;;;5.20;100.00;62533.13;5033129;28;20217;-82
2023/01/10 09:25:53;;;;;;;24.67;12.07;;;;;;;5.36;100.00;62552.66;5032183;28;20223;-81
2023/01/10 09:28:23;;;;;;;21.23;12.77;;;;;;;4.92;100.00;62507.31;5033841;28;20225;-82
2023/01/10 09:30:50;;;;;;;22.77;13.93;;;;;;;5.42;100.00;62553.78;5031539;28;20218;-82
2023/01/10 09:33:17;;;;;;;19.83;12.05;;;;;;;5.41;100.00;62557.28;5033142;28;20202;-82
2023/01/10 09:35:46;;;;;;;14.68;11.30;;;;;;;5.11;100.00;62526.88;5033864;28;20250;-83
2023/01/10 09:38:15;;;;;;;15.23;10.85;;;;;;;5.56;100.00;62573.25;5032981;28;20202;-84
2023/01/10 09:40:58;;;;;;;13.80;9.05;;;;;;;5.33;100.00;62547.03;5033294;28;20183;-83
2023/01/10 09:43:37;;;;;;;16.27;11.38;;;;;;;4.65;100.00;62479.53;5034742;28;20199;-82
2023/01/10 09:46:10;;;;;;;18.73;13.60;;;;;;;4.68;100.00;62482.63;5031336;28;20222;-84
2023/01/10 09:48:45;;;;;;;19.40;13.05;;;;;;;4.93;100.00;62510.88;5032931;28;20262;-82
2023/01/10 09:51:29;;;;;;;21.05;13.27;;;;;;;4.71;100.00;62488.75;5030680;28;20241;-84
2023/01/10 09:53:59;;;;;;;22.05;14.35;;;;;;;4.65;100.00;62475.00;5033183;28;20230;-82
2023/01/10 09:56:28;;;;;;;28.20;14.30;;;;;;;5.11;100.00;62528.91;5031427;28;20238;-82
2023/01/10 09:58:57;;;;;;;19.75;12.63;;;;;;;5.34;100.00;62547.53;5033385;28;20198;-84
2023/01/10 10:01:30;;;;;;;20.50;13.07;;;;;;;5.11;100.00;62528.91;5030900;28;20219;-84
2023/01/10 10:04:05;;;;;;;18.73;12.55;;;;;;;4.90;100.00;62505.25;5031476;28;20187;-85
2023/01/10 10:06:34;;;;;;;22.80;13.77;;;;;;;4.65;100.00;62477.00;5032296;28;20222;-83
2023/01/10 10:09:02;;;;;;;28.50;17.15;;;;;;;5.02;100.00;62512.56;5032679;28;20210;-84
2023/01/10 10:11:46;;;;;;;19.17;15.52;;;;;;;5.05;100.00;62518.19;5031457;28;20225;-82
2023/01/10 10:14:24;;;;;;;25.00;15.18;;;;;;;5.18;100.00;62534.09;5040689;28;20258;-84
2023/01/10 10:17:07;;;;;;;21.30;13.52;;;;;;;5.26;100.00;62542.34;5041266;28;20241;-84
2023/01/10 10:19:48;;;;;;;26.73;14.27;;;;;;;5.11;100.00;62526.88;5028300;28;20195;-83
2023/01/10 10:22:28;;;;;;;20.92;12.77;;;;;;;5.04;100.00;62519.69;5037027;28;20297;-84
2023/01/10 10:25:04;;;;;;;24.50;15.57;;;;;;;4.92;100.00;62501.78;5039745;28;20198;-85
2023/01/10 10:27:36;;;;;;;24.38;14.60;;;;;;;5.26;100.00;62542.34;5039652;28;20229;-84
2023/01/10 10:30:26;;;;;;;31.23;18.52;;;;;;;5.35;100.00;62546.56;5040211;28;20190;-84
2023/01/10 10:33:17;;;;;;;32.17;16.73;;;;;;;5.13;100.00;62525.91;5044082;28;20202;-83
2023/01/10 10:35:51;;;;;;;23.50;16.58;;;;;;;5.23;100.00;62533.69;5037177;28;20229;-85
2023/01/10 10:38:28;;;;;;;34.03;18.10;;;;;;;5.32;100.00;62543.47;5048995;28;20199;-83
2023/01/10 10:40:56;;;;;;;41.53;23.65;;;;;;;4.91;100.00;62503.78;5037939;28;20270;-82
2023/01/10 10:43:30;;;;;;;40.33;23.58;;;;;;;4.76;100.00;62488.34;5044496;28;20206;-82
2023/01/10 10:46:02;;;;;;;48.33;26.15;;;;;;;4.82;100.00;62493.97;5043403;28;20226;-82
2023/01/10 10:48:32;;;;;;;44.75;25.58;;;;;;;5.03;100.00;62515.63;5040616;28;20423;-82
2023/01/10 10:51:07;;;;;;;41.42;24.88;;;;;;;5.05;100.00;62525.75;5032258;28;20222;-82
2023/01/10 10:53:35;;;;;;;47.70;26.50;;;;;;;4.80;100.00;62494.47;5032462;28;20198;-82
2023/01/10 10:56:06;;;;;;;49.53;25.75;;;;;;;4.96;100.00;62510.94;5031898;28;20238;-81
2023/01/10 10:58:34;;;;;;;56.58;30.73;;;;;;;5.16;100.00;62534.06;5031229;28;20227;-82
2023/01/10 11:01:01;;;;;;;58.33;35.40;;;;;;;5.19;100.00;62535.13;5033252;28;20277;-80
2023/01/10 11:03:41;;;;;;;51.80;29.20;;;;;;;5.08;100.00;62521.28;5033636;28;20246;-81
2023/01/10 11:06:09;;;;;;;53.92;28.15;;;;;;;4.94;100.00;62506.34;5031300;28;20226;-80
2023/01/10 11:08:42;;;;;;;54.15;31.75;;;;;;;5.14;100.00;62530.00;5023013;28;20238;-81
2023/01/10 11:11:17;;;;;;;63.95;38.05;;;;;;;5.26;100.00;62536.78;5030060;28;20218;-81
2023/01/10 11:13:49;;;;;;;48.45;29.42;;;;;;;5.11;100.00;62521.84;5029764;28;20209;-80
2023/01/10 11:16:28;;;;;;;52.92;30.00;;;;;;;4.83;100.00;62498.06;5029249;28;20242;-81
2023/01/10 11:19:21;;;;;;;63.83;31.95;;;;;;;4.84;100.00;62496.06;5029137;28;20317;-82
2023/01/10 11:21:52;;;;;;;58.42;32.20;;;;;;;4.80;100.00;62492.44;5030138;28;20230;-80
2023/01/10 11:24:26;;;;;;;52.58;30.77;;;;;;;4.98;100.00;62511.00;5030491;28;20203;-81
2023/01/10 11:26:53;;;;;;;52.38;30.83;;;;;;;5.01;100.00;62511.03;5030562;28;20253;-80
2023/01/10 11:29:26;;;;;;;62.72;32.00;;;;;;;4.95;100.00;62507.38;5032195;28;20211;-82
2023/01/10 11:31:55;;;;;;;48.85;30.40;;;;;;;4.68;100.00;62482.63;5032934;28;20241;-81
2023/01/10 11:34:25;;;;;;;62.28;33.88;;;;;;;4.93;100.00;62505.84;5030956;28;20205;-80
2023/01/10 11:36:55;;;;;;;66.35;35.17;;;;;;;4.95;100.00;62510.44;5029673;28;20226;-80
2023/01/10 11:39:24;;;;;;;67.95;33.55;;;;;;;4.66;100.00;62481.06;5030014;28;20206;-79
2023/01/10 11:41:54;;;;;;;67.80;33.33;;;;;;;4.87;100.00;62501.69;5031221;28;20238;-80